Country
Station

 

Weather  for  Rotterdam Airport Zestienhoven  -  Netherlands    Netherlands

  
16 °C (61 °F)
    
 
 

Current METAR for Rotterdam Airport Zestienhoven is :

EHRD 192055Z AUTO 07001KT 9999 NCD 16/12 Q1023 NOSIG

 

This is a report for Rotterdam Airport Zestienhoven - Netherlands.
 
The report was made 31 minutes ago, at 20:55 UTC .
The wind was blowing at a speed of 0.5 meters per second (1.2 miles per hour) from east/northeast (070°).
 
The temperature was 16 °C (61 °F), with a dew-point at 12 °C (54 °F).
The atmospheric pressure was 1023 hPa (30.21 inHg).
The relative humidity was 77.1%.
 
The overall visibility was greater than 10 kilometers (6.2 miles).
 

 
 
 
 

Country :   A   B   C   D   E   F   G   H   I   J   K   L   M   N   O   P   Q   R   S   T   U   V   W   Y   Z

 

Site Info  |  Disclaimer  |  Credits  |  Privacy
Contact us  |  Add to favorites
© 2013-2018 METARs - All rights reserved